sensor_id;sensor_type;location;lat;lon;timestamp;P1;durP1;ratioP1;P2;durP2;ratioP2
12290;SDS011;6208;48.956;9.076;2023-06-19T00:00:13;6.45;;;5.95;;
12290;SDS011;6208;48.956;9.076;2023-06-19T00:02:59;6.97;;;6.38;;
12290;SDS011;6208;48.956;9.076;2023-06-19T00:05:43;6.57;;;6.07;;
12290;SDS011;6208;48.956;9.076;2023-06-19T00:08:28;6.88;;;6.30;;
12290;SDS011;6208;48.956;9.076;2023-06-19T00:11:12;7.50;;;6.90;;
12290;SDS011;6208;48.956;9.076;2023-06-19T00:13:57;6.45;;;5.95;;
12290;SDS011;6208;48.956;9.076;2023-06-19T00:16:41;6.80;;;6.20;;
12290;SDS011;6208;48.956;9.076;2023-06-19T00:19:26;6.35;;;5.95;;
12290;SDS011;6208;48.956;9.076;2023-06-19T00:22:10;6.68;;;6.20;;
12290;SDS011;6208;48.956;9.076;2023-06-19T00:24:54;7.22;;;6.63;;
12290;SDS011;6208;48.956;9.076;2023-06-19T00:27:39;6.80;;;6.30;;
12290;SDS011;6208;48.956;9.076;2023-06-19T00:30:23;7.25;;;6.57;;
12290;SDS011;6208;48.956;9.076;2023-06-19T00:33:07;6.65;;;6.15;;
12290;SDS011;6208;48.956;9.076;2023-06-19T00:35:52;7.85;;;7.05;;
12290;SDS011;6208;48.956;9.076;2023-06-19T00:38:38;7.45;;;6.82;;
12290;SDS011;6208;48.956;9.076;2023-06-19T00:41:24;7.35;;;6.68;;
12290;SDS011;6208;48.956;9.076;2023-06-19T00:44:11;7.00;;;6.35;;
12290;SDS011;6208;48.956;9.076;2023-06-19T00:46:57;7.30;;;6.60;;
12290;SDS011;6208;48.956;9.076;2023-06-19T00:49:42;8.00;;;6.75;;
12290;SDS011;6208;48.956;9.076;2023-06-19T00:52:27;7.47;;;6.70;;
12290;SDS011;6208;48.956;9.076;2023-06-19T00:55:11;6.65;;;6.10;;
12290;SDS011;6208;48.956;9.076;2023-06-19T00:57:56;7.38;;;6.65;;
12290;SDS011;6208;48.956;9.076;2023-06-19T01:00:41;7.55;;;6.85;;
12290;SDS011;6208;48.956;9.076;2023-06-19T01:03:26;7.43;;;6.82;;
12290;SDS011;6208;48.956;9.076;2023-06-19T01:06:13;9.32;;;6.40;;
12290;SDS011;6208;48.956;9.076;2023-06-19T01:09:01;6.40;;;5.90;;
12290;SDS011;6208;48.956;9.076;2023-06-19T01:11:56;6.50;;;5.97;;
12290;SDS011;6208;48.956;9.076;2023-06-19T01:14:48;8.57;;;6.03;;
12290;SDS011;6208;48.956;9.076;2023-06-19T01:17:37;6.45;;;5.85;;
12290;SDS011;6208;48.956;9.076;2023-06-19T01:20:23;6.05;;;5.55;;
12290;SDS011;6208;48.956;9.076;2023-06-19T01:23:08;6.43;;;4.95;;
12290;SDS011;6208;48.956;9.076;2023-06-19T01:25:53;5.60;;;4.85;;
12290;SDS011;6208;48.956;9.076;2023-06-19T01:28:38;5.10;;;4.40;;
12290;SDS011;6208;48.956;9.076;2023-06-19T01:31:26;5.07;;;3.67;;
12290;SDS011;6208;48.956;9.076;2023-06-19T01:34:16;8.55;;;3.80;;
12290;SDS011;6208;48.956;9.076;2023-06-19T01:37:04;3.85;;;3.60;;
12290;SDS011;6208;48.956;9.076;2023-06-19T01:39:50;3.67;;;3.33;;
12290;SDS011;6208;48.956;9.076;2023-06-19T01:42:35;3.30;;;3.10;;
12290;SDS011;6208;48.956;9.076;2023-06-19T01:45:21;4.75;;;3.50;;
12290;SDS011;6208;48.956;9.076;2023-06-19T01:48:06;3.92;;;3.63;;
12290;SDS011;6208;48.956;9.076;2023-06-19T01:50:51;3.60;;;3.30;;
12290;SDS011;6208;48.956;9.076;2023-06-19T01:53:36;3.55;;;3.35;;
12290;SDS011;6208;48.956;9.076;2023-06-19T01:56:20;3.75;;;3.38;;
12290;SDS011;6208;48.956;9.076;2023-06-19T01:59:07;3.50;;;3.10;;
12290;SDS011;6208;48.956;9.076;2023-06-19T02:01:52;3.30;;;3.05;;
12290;SDS011;6208;48.956;9.076;2023-06-19T02:04:36;5.70;;;2.90;;
12290;SDS011;6208;48.956;9.076;2023-06-19T02:07:21;3.30;;;3.10;;
12290;SDS011;6208;48.956;9.076;2023-06-19T02:10:06;2.92;;;2.83;;
12290;SDS011;6208;48.956;9.076;2023-06-19T02:12:51;3.05;;;2.85;;
12290;SDS011;6208;48.956;9.076;2023-06-19T02:15:36;3.40;;;3.20;;
12290;SDS011;6208;48.956;9.076;2023-06-19T02:18:20;3.20;;;2.90;;
12290;SDS011;6208;48.956;9.076;2023-06-19T02:21:04;2.70;;;2.60;;
12290;SDS011;6208;48.956;9.076;2023-06-19T02:23:49;2.58;;;2.38;;
12290;SDS011;6208;48.956;9.076;2023-06-19T02:26:33;2.33;;;2.22;;
12290;SDS011;6208;48.956;9.076;2023-06-19T02:29:17;3.80;;;2.38;;
12290;SDS011;6208;48.956;9.076;2023-06-19T02:32:02;2.28;;;2.17;;
12290;SDS011;6208;48.956;9.076;2023-06-19T02:34:47;3.17;;;2.38;;
12290;SDS011;6208;48.956;9.076;2023-06-19T02:37:31;2.35;;;2.25;;
12290;SDS011;6208;48.956;9.076;2023-06-19T02:43:57;2.30;;;2.20;;
12290;SDS011;6208;48.956;9.076;2023-06-19T02:46:41;2.20;;;2.10;;
12290;SDS011;6208;48.956;9.076;2023-06-19T02:53:07;2.60;;;1.90;;
12290;SDS011;6208;48.956;9.076;2023-06-19T02:55:52;2.20;;;2.10;;
12290;SDS011;6208;48.956;9.076;2023-06-19T02:58:36;2.15;;;1.95;;
12290;SDS011;6208;48.956;9.076;2023-06-19T03:01:21;2.38;;;2.28;;
12290;SDS011;6208;48.956;9.076;2023-06-19T03:04:05;2.05;;;1.95;;
12290;SDS011;6208;48.956;9.076;2023-06-19T03:06:49;3.22;;;1.90;;
12290;SDS011;6208;48.956;9.076;2023-06-19T03:09:34;2.40;;;2.20;;
12290;SDS011;6208;48.956;9.076;2023-06-19T03:12:18;2.20;;;2.10;;
12290;SDS011;6208;48.956;9.076;2023-06-19T03:15:02;3.30;;;2.60;;
12290;SDS011;6208;48.956;9.076;2023-06-19T03:17:46;3.15;;;2.95;;
12290;SDS011;6208;48.956;9.076;2023-06-19T03:20:31;2.58;;;2.30;;
12290;SDS011;6208;48.956;9.076;2023-06-19T03:23:16;2.40;;;2.30;;
12290;SDS011;6208;48.956;9.076;2023-06-19T03:26:00;3.17;;;2.30;;
12290;SDS011;6208;48.956;9.076;2023-06-19T03:28:46;2.63;;;2.53;;
12290;SDS011;6208;48.956;9.076;2023-06-19T03:31:31;2.30;;;2.20;;
12290;SDS011;6208;48.956;9.076;2023-06-19T03:34:15;2.22;;;2.13;;
12290;SDS011;6208;48.956;9.076;2023-06-19T03:36:59;2.85;;;2.65;;
12290;SDS011;6208;48.956;9.076;2023-06-19T03:39:44;2.50;;;2.40;;
12290;SDS011;6208;48.956;9.076;2023-06-19T03:42:29;2.90;;;2.70;;
12290;SDS011;6208;48.956;9.076;2023-06-19T03:45:13;2.55;;;2.45;;
12290;SDS011;6208;48.956;9.076;2023-06-19T03:47:58;2.38;;;2.28;;
12290;SDS011;6208;48.956;9.076;2023-06-19T03:50:43;2.58;;;2.38;;
12290;SDS011;6208;48.956;9.076;2023-06-19T03:53:27;2.58;;;2.47;;
12290;SDS011;6208;48.956;9.076;2023-06-19T03:56:11;3.00;;;2.75;;
12290;SDS011;6208;48.956;9.076;2023-06-19T03:58:56;2.88;;;2.78;;
12290;SDS011;6208;48.956;9.076;2023-06-19T04:01:40;2.97;;;2.78;;
12290;SDS011;6208;48.956;9.076;2023-06-19T04:04:25;3.08;;;2.58;;
12290;SDS011;6208;48.956;9.076;2023-06-19T04:07:10;2.60;;;2.50;;
12290;SDS011;6208;48.956;9.076;2023-06-19T04:09:54;2.80;;;2.70;;
12290;SDS011;6208;48.956;9.076;2023-06-19T04:12:38;2.25;;;2.15;;
12290;SDS011;6208;48.956;9.076;2023-06-19T04:15:24;2.67;;;2.58;;
12290;SDS011;6208;48.956;9.076;2023-06-19T04:18:08;2.80;;;2.60;;
12290;SDS011;6208;48.956;9.076;2023-06-19T04:20:52;2.90;;;2.70;;
12290;SDS011;6208;48.956;9.076;2023-06-19T04:23:37;2.85;;;2.75;;
12290;SDS011;6208;48.956;9.076;2023-06-19T04:26:22;3.30;;;3.10;;
12290;SDS011;6208;48.956;9.076;2023-06-19T04:29:07;3.10;;;2.90;;
12290;SDS011;6208;48.956;9.076;2023-06-19T04:32:00;3.65;;;3.45;;
12290;SDS011;6208;48.956;9.076;2023-06-19T04:34:46;3.33;;;3.08;;
12290;SDS011;6208;48.956;9.076;2023-06-19T04:37:31;3.30;;;3.10;;
12290;SDS011;6208;48.956;9.076;2023-06-19T04:40:15;3.15;;;2.95;;
12290;SDS011;6208;48.956;9.076;2023-06-19T04:43:03;3.40;;;3.20;;
12290;SDS011;6208;48.956;9.076;2023-06-19T04:45:49;3.63;;;3.42;;
12290;SDS011;6208;48.956;9.076;2023-06-19T04:48:33;3.85;;;3.20;;
12290;SDS011;6208;48.956;9.076;2023-06-19T04:51:19;3.38;;;3.17;;
12290;SDS011;6208;48.956;9.076;2023-06-19T04:54:04;3.17;;;3.03;;
12290;SDS011;6208;48.956;9.076;2023-06-19T04:56:48;3.65;;;3.13;;
12290;SDS011;6208;48.956;9.076;2023-06-19T04:59:33;4.65;;;3.35;;
12290;SDS011;6208;48.956;9.076;2023-06-19T05:02:17;3.30;;;3.10;;
12290;SDS011;6208;48.956;9.076;2023-06-19T05:05:02;3.17;;;2.90;;
12290;SDS011;6208;48.956;9.076;2023-06-19T05:07:46;3.22;;;3.03;;
12290;SDS011;6208;48.956;9.076;2023-06-19T05:10:31;3.60;;;3.13;;
12290;SDS011;6208;48.956;9.076;2023-06-19T05:13:16;2.65;;;2.55;;
12290;SDS011;6208;48.956;9.076;2023-06-19T05:16:02;2.75;;;2.55;;
12290;SDS011;6208;48.956;9.076;2023-06-19T05:18:46;3.10;;;2.90;;
12290;SDS011;6208;48.956;9.076;2023-06-19T05:21:30;3.05;;;2.85;;
12290;SDS011;6208;48.956;9.076;2023-06-19T05:24:15;3.88;;;3.22;;
12290;SDS011;6208;48.956;9.076;2023-06-19T05:26:59;3.10;;;2.90;;
12290;SDS011;6208;48.956;9.076;2023-06-19T05:29:44;3.15;;;2.95;;
12290;SDS011;6208;48.956;9.076;2023-06-19T05:32:29;2.90;;;2.80;;
12290;SDS011;6208;48.956;9.076;2023-06-19T05:35:13;3.00;;;2.80;;
12290;SDS011;6208;48.956;9.076;2023-06-19T05:37:57;3.40;;;3.15;;
12290;SDS011;6208;48.956;9.076;2023-06-19T05:40:42;3.30;;;3.10;;
12290;SDS011;6208;48.956;9.076;2023-06-19T05:43:26;2.83;;;2.72;;
12290;SDS011;6208;48.956;9.076;2023-06-19T05:46:10;3.50;;;3.20;;
12290;SDS011;6208;48.956;9.076;2023-06-19T05:48:55;3.20;;;3.00;;
12290;SDS011;6208;48.956;9.076;2023-06-19T05:51:39;3.10;;;2.90;;
12290;SDS011;6208;48.956;9.076;2023-06-19T05:54:23;3.08;;;2.88;;
12290;SDS011;6208;48.956;9.076;2023-06-19T05:57:07;3.38;;;3.08;;
12290;SDS011;6208;48.956;9.076;2023-06-19T05:59:52;3.00;;;2.90;;
12290;SDS011;6208;48.956;9.076;2023-06-19T06:02:36;3.22;;;2.92;;
12290;SDS011;6208;48.956;9.076;2023-06-19T06:05:21;3.20;;;3.00;;
12290;SDS011;6208;48.956;9.076;2023-06-19T06:08:05;2.92;;;2.83;;
12290;SDS011;6208;48.956;9.076;2023-06-19T06:10:50;3.30;;;3.10;;
12290;SDS011;6208;48.956;9.076;2023-06-19T06:13:34;3.72;;;3.42;;
12290;SDS011;6208;48.956;9.076;2023-06-19T06:16:19;2.97;;;2.88;;
12290;SDS011;6208;48.956;9.076;2023-06-19T06:19:03;2.75;;;2.60;;
12290;SDS011;6208;48.956;9.076;2023-06-19T06:21:48;2.70;;;2.60;;
12290;SDS011;6208;48.956;9.076;2023-06-19T06:24:32;3.15;;;2.97;;
12290;SDS011;6208;48.956;9.076;2023-06-19T06:27:16;3.65;;;3.20;;
12290;SDS011;6208;48.956;9.076;2023-06-19T06:30:01;3.95;;;3.65;;
12290;SDS011;6208;48.956;9.076;2023-06-19T06:32:46;3.13;;;2.83;;
12290;SDS011;6208;48.956;9.076;2023-06-19T06:35:31;3.03;;;2.83;;
12290;SDS011;6208;48.956;9.076;2023-06-19T06:38:15;3.22;;;3.03;;
12290;SDS011;6208;48.956;9.076;2023-06-19T06:40:59;3.08;;;2.88;;
12290;SDS011;6208;48.956;9.076;2023-06-19T06:43:44;3.38;;;3.17;;
12290;SDS011;6208;48.956;9.076;2023-06-19T06:46:29;2.90;;;2.72;;
12290;SDS011;6208;48.956;9.076;2023-06-19T06:49:13;2.92;;;2.72;;
12290;SDS011;6208;48.956;9.076;2023-06-19T06:51:59;3.05;;;2.83;;
12290;SDS011;6208;48.956;9.076;2023-06-19T06:54:44;7.93;;;7.32;;
12290;SDS011;6208;48.956;9.076;2023-06-19T06:57:29;4.53;;;3.20;;
12290;SDS011;6208;48.956;9.076;2023-06-19T07:00:13;3.08;;;2.85;;
12290;SDS011;6208;48.956;9.076;2023-06-19T07:02:58;3.55;;;3.17;;
12290;SDS011;6208;48.956;9.076;2023-06-19T07:05:43;2.75;;;2.65;;
12290;SDS011;6208;48.956;9.076;2023-06-19T07:08:27;4.28;;;3.20;;
12290;SDS011;6208;48.956;9.076;2023-06-19T07:11:12;3.55;;;3.17;;
12290;SDS011;6208;48.956;9.076;2023-06-19T07:13:56;3.83;;;3.22;;
12290;SDS011;6208;48.956;9.076;2023-06-19T07:16:40;4.95;;;3.10;;
12290;SDS011;6208;48.956;9.076;2023-06-19T07:19:25;3.42;;;3.13;;
12290;SDS011;6208;48.956;9.076;2023-06-19T07:22:10;3.50;;;3.30;;
12290;SDS011;6208;48.956;9.076;2023-06-19T07:24:54;3.58;;;3.25;;
12290;SDS011;6208;48.956;9.076;2023-06-19T07:27:42;6.35;;;3.08;;
12290;SDS011;6208;48.956;9.076;2023-06-19T07:30:27;2.80;;;2.70;;
12290;SDS011;6208;48.956;9.076;2023-06-19T07:33:11;3.67;;;3.33;;
12290;SDS011;6208;48.956;9.076;2023-06-19T07:35:56;3.05;;;2.85;;
12290;SDS011;6208;48.956;9.076;2023-06-19T07:38:40;3.08;;;2.88;;
12290;SDS011;6208;48.956;9.076;2023-06-19T07:41:25;2.83;;;2.72;;
12290;SDS011;6208;48.956;9.076;2023-06-19T07:44:09;3.00;;;2.90;;
12290;SDS011;6208;48.956;9.076;2023-06-19T07:46:54;3.10;;;2.90;;
12290;SDS011;6208;48.956;9.076;2023-06-19T07:49:38;2.78;;;2.67;;
12290;SDS011;6208;48.956;9.076;2023-06-19T07:52:23;3.13;;;2.95;;
12290;SDS011;6208;48.956;9.076;2023-06-19T07:55:08;2.95;;;2.85;;
12290;SDS011;6208;48.956;9.076;2023-06-19T07:57:52;3.00;;;2.80;;
12290;SDS011;6208;48.956;9.076;2023-06-19T08:00:40;2.65;;;2.55;;
12290;SDS011;6208;48.956;9.076;2023-06-19T08:03:24;3.45;;;3.15;;
12290;SDS011;6208;48.956;9.076;2023-06-19T08:06:08;3.45;;;3.25;;
12290;SDS011;6208;48.956;9.076;2023-06-19T08:08:53;3.67;;;3.22;;
12290;SDS011;6208;48.956;9.076;2023-06-19T08:11:37;3.28;;;3.08;;
12290;SDS011;6208;48.956;9.076;2023-06-19T08:14:21;3.20;;;2.85;;
12290;SDS011;6208;48.956;9.076;2023-06-19T08:17:06;2.88;;;2.78;;
12290;SDS011;6208;48.956;9.076;2023-06-19T08:19:50;3.00;;;2.90;;
12290;SDS011;6208;48.956;9.076;2023-06-19T08:22:35;3.40;;;3.20;;
12290;SDS011;6208;48.956;9.076;2023-06-19T08:25:20;3.30;;;3.15;;
12290;SDS011;6208;48.956;9.076;2023-06-19T08:28:04;3.45;;;3.15;;
12290;SDS011;6208;48.956;9.076;2023-06-19T08:30:49;3.83;;;3.33;;
12290;SDS011;6208;48.956;9.076;2023-06-19T08:33:36;3.03;;;2.83;;
12290;SDS011;6208;48.956;9.076;2023-06-19T08:36:21;4.35;;;3.05;;
12290;SDS011;6208;48.956;9.076;2023-06-19T08:39:05;3.20;;;3.00;;
12290;SDS011;6208;48.956;9.076;2023-06-19T08:41:51;3.05;;;2.90;;
12290;SDS011;6208;48.956;9.076;2023-06-19T08:44:39;3.50;;;3.20;;
12290;SDS011;6208;48.956;9.076;2023-06-19T08:47:28;2.75;;;2.65;;
12290;SDS011;6208;48.956;9.076;2023-06-19T08:50:13;3.35;;;2.97;;
12290;SDS011;6208;48.956;9.076;2023-06-19T08:52:58;3.25;;;3.05;;
12290;SDS011;6208;48.956;9.076;2023-06-19T08:55:43;3.00;;;2.70;;
12290;SDS011;6208;48.956;9.076;2023-06-19T08:58:27;3.38;;;3.10;;
12290;SDS011;6208;48.956;9.076;2023-06-19T09:01:13;3.53;;;3.22;;
12290;SDS011;6208;48.956;9.076;2023-06-19T09:04:07;3.40;;;3.20;;
12290;SDS011;6208;48.956;9.076;2023-06-19T09:06:56;3.58;;;3.35;;
12290;SDS011;6208;48.956;9.076;2023-06-19T09:09:45;3.47;;;3.10;;
12290;SDS011;6208;48.956;9.076;2023-06-19T09:12:30;3.30;;;3.10;;
12290;SDS011;6208;48.956;9.076;2023-06-19T09:15:17;3.30;;;3.10;;
12290;SDS011;6208;48.956;9.076;2023-06-19T09:18:05;3.00;;;2.80;;
12290;SDS011;6208;48.956;9.076;2023-06-19T09:20:54;3.50;;;3.30;;
12290;SDS011;6208;48.956;9.076;2023-06-19T09:23:39;2.97;;;2.88;;
12290;SDS011;6208;48.956;9.076;2023-06-19T09:26:23;3.40;;;3.20;;
12290;SDS011;6208;48.956;9.076;2023-06-19T09:29:12;3.20;;;3.00;;
12290;SDS011;6208;48.956;9.076;2023-06-19T09:31:57;3.00;;;2.80;;
12290;SDS011;6208;48.956;9.076;2023-06-19T09:34:41;3.45;;;3.03;;
12290;SDS011;6208;48.956;9.076;2023-06-19T09:37:27;3.45;;;3.15;;
12290;SDS011;6208;48.956;9.076;2023-06-19T09:40:12;5.25;;;2.92;;
12290;SDS011;6208;48.956;9.076;2023-06-19T09:42:56;3.03;;;2.92;;
12290;SDS011;6208;48.956;9.076;2023-06-19T09:45:42;3.20;;;3.00;;
12290;SDS011;6208;48.956;9.076;2023-06-19T09:48:28;3.00;;;2.67;;
12290;SDS011;6208;48.956;9.076;2023-06-19T09:51:23;3.65;;;2.70;;
12290;SDS011;6208;48.956;9.076;2023-06-19T09:54:14;2.92;;;2.72;;
12290;SDS011;6208;48.956;9.076;2023-06-19T09:56:59;2.75;;;2.60;;
12290;SDS011;6208;48.956;9.076;2023-06-19T09:59:56;6.10;;;3.35;;
12290;SDS011;6208;48.956;9.076;2023-06-19T10:02:42;2.85;;;2.75;;
12290;SDS011;6208;48.956;9.076;2023-06-19T10:05:29;4.28;;;2.70;;
12290;SDS011;6208;48.956;9.076;2023-06-19T10:08:14;2.72;;;2.63;;
12290;SDS011;6208;48.956;9.076;2023-06-19T10:10:58;2.70;;;2.60;;
12290;SDS011;6208;48.956;9.076;2023-06-19T10:13:43;3.10;;;2.90;;
12290;SDS011;6208;48.956;9.076;2023-06-19T10:16:28;3.33;;;3.13;;
12290;SDS011;6208;48.956;9.076;2023-06-19T10:19:17;3.30;;;3.00;;
12290;SDS011;6208;48.956;9.076;2023-06-19T10:22:04;3.05;;;2.85;;
12290;SDS011;6208;48.956;9.076;2023-06-19T10:24:51;3.83;;;3.25;;
12290;SDS011;6208;48.956;9.076;2023-06-19T10:27:37;3.22;;;3.03;;
12290;SDS011;6208;48.956;9.076;2023-06-19T10:30:21;2.97;;;2.88;;
12290;SDS011;6208;48.956;9.076;2023-06-19T10:33:06;6.57;;;3.20;;
12290;SDS011;6208;48.956;9.076;2023-06-19T10:35:50;3.08;;;2.97;;
12290;SDS011;6208;48.956;9.076;2023-06-19T10:38:35;3.63;;;3.10;;
12290;SDS011;6208;48.956;9.076;2023-06-19T10:41:21;3.97;;;3.75;;
12290;SDS011;6208;48.956;9.076;2023-06-19T10:44:09;3.72;;;3.53;;
12290;SDS011;6208;48.956;9.076;2023-06-19T10:46:56;3.53;;;3.22;;
12290;SDS011;6208;48.956;9.076;2023-06-19T10:49:41;3.13;;;2.88;;
12290;SDS011;6208;48.956;9.076;2023-06-19T10:52:25;3.45;;;3.15;;
12290;SDS011;6208;48.956;9.076;2023-06-19T10:55:12;3.33;;;3.20;;
12290;SDS011;6208;48.956;9.076;2023-06-19T10:57:57;3.28;;;3.13;;
12290;SDS011;6208;48.956;9.076;2023-06-19T11:00:41;3.30;;;3.10;;
12290;SDS011;6208;48.956;9.076;2023-06-19T11:03:26;3.60;;;3.40;;
12290;SDS011;6208;48.956;9.076;2023-06-19T11:06:11;3.42;;;3.20;;
12290;SDS011;6208;48.956;9.076;2023-06-19T11:08:55;3.08;;;2.97;;
12290;SDS011;6208;48.956;9.076;2023-06-19T11:11:42;3.63;;;3.40;;
12290;SDS011;6208;48.956;9.076;2023-06-19T11:14:30;3.17;;;3.08;;
12290;SDS011;6208;48.956;9.076;2023-06-19T11:17:15;3.60;;;3.40;;
12290;SDS011;6208;48.956;9.076;2023-06-19T11:20:02;4.25;;;3.50;;
12290;SDS011;6208;48.956;9.076;2023-06-19T11:22:53;3.38;;;3.20;;
12290;SDS011;6208;48.956;9.076;2023-06-19T11:25:42;3.30;;;3.10;;
12290;SDS011;6208;48.956;9.076;2023-06-19T11:28:27;3.70;;;3.47;;
12290;SDS011;6208;48.956;9.076;2023-06-19T11:31:13;3.88;;;3.50;;
12290;SDS011;6208;48.956;9.076;2023-06-19T11:33:58;3.50;;;3.30;;
12290;SDS011;6208;48.956;9.076;2023-06-19T11:36:43;3.67;;;3.30;;
12290;SDS011;6208;48.956;9.076;2023-06-19T11:39:28;3.58;;;3.30;;
12290;SDS011;6208;48.956;9.076;2023-06-19T11:42:12;3.60;;;3.40;;
12290;SDS011;6208;48.956;9.076;2023-06-19T11:45:01;3.20;;;3.00;;
12290;SDS011;6208;48.956;9.076;2023-06-19T11:47:49;3.58;;;3.30;;
12290;SDS011;6208;48.956;9.076;2023-06-19T11:50:34;3.50;;;3.30;;
12290;SDS011;6208;48.956;9.076;2023-06-19T11:53:19;3.38;;;3.17;;
12290;SDS011;6208;48.956;9.076;2023-06-19T11:56:04;3.78;;;3.47;;
12290;SDS011;6208;48.956;9.076;2023-06-19T11:58:48;3.92;;;3.63;;
12290;SDS011;6208;48.956;9.076;2023-06-19T12:01:33;3.60;;;3.30;;
12290;SDS011;6208;48.956;9.076;2023-06-19T12:04:18;3.50;;;3.30;;
12290;SDS011;6208;48.956;9.076;2023-06-19T12:07:03;3.47;;;3.28;;
12290;SDS011;6208;48.956;9.076;2023-06-19T12:09:48;3.65;;;3.45;;
12290;SDS011;6208;48.956;9.076;2023-06-19T12:12:33;2.97;;;2.88;;
12290;SDS011;6208;48.956;9.076;2023-06-19T12:15:18;3.80;;;3.50;;
12290;SDS011;6208;48.956;9.076;2023-06-19T12:18:03;2.90;;;2.80;;
12290;SDS011;6208;48.956;9.076;2023-06-19T12:20:47;3.55;;;3.35;;
12290;SDS011;6208;48.956;9.076;2023-06-19T12:23:32;3.30;;;3.10;;
12290;SDS011;6208;48.956;9.076;2023-06-19T12:26:17;3.55;;;3.33;;
12290;SDS011;6208;48.956;9.076;2023-06-19T12:29:01;3.33;;;3.13;;
12290;SDS011;6208;48.956;9.076;2023-06-19T12:31:47;3.42;;;3.22;;
12290;SDS011;6208;48.956;9.076;2023-06-19T12:34:31;3.45;;;3.25;;
12290;SDS011;6208;48.956;9.076;2023-06-19T12:37:16;3.30;;;3.20;;
12290;SDS011;6208;48.956;9.076;2023-06-19T12:40:01;3.53;;;3.42;;
12290;SDS011;6208;48.956;9.076;2023-06-19T12:42:51;4.05;;;3.75;;
12290;SDS011;6208;48.956;9.076;2023-06-19T12:45:36;3.42;;;3.22;;
12290;SDS011;6208;48.956;9.076;2023-06-19T12:48:20;3.85;;;3.65;;
12290;SDS011;6208;48.956;9.076;2023-06-19T12:51:05;6.20;;;3.33;;
12290;SDS011;6208;48.956;9.076;2023-06-19T12:53:49;3.58;;;3.38;;
12290;SDS011;6208;48.956;9.076;2023-06-19T12:56:34;3.83;;;3.63;;
12290;SDS011;6208;48.956;9.076;2023-06-19T12:59:19;3.65;;;3.35;;
12290;SDS011;6208;48.956;9.076;2023-06-19T13:02:03;4.18;;;3.90;;
12290;SDS011;6208;48.956;9.076;2023-06-19T13:04:48;3.95;;;3.75;;
12290;SDS011;6208;48.956;9.076;2023-06-19T13:07:32;3.40;;;3.20;;
12290;SDS011;6208;48.956;9.076;2023-06-19T13:10:16;3.60;;;3.40;;
12290;SDS011;6208;48.956;9.076;2023-06-19T13:13:01;3.95;;;3.65;;
12290;SDS011;6208;48.956;9.076;2023-06-19T13:15:45;3.53;;;3.30;;
12290;SDS011;6208;48.956;9.076;2023-06-19T13:18:30;3.60;;;3.30;;
12290;SDS011;6208;48.956;9.076;2023-06-19T13:21:15;3.25;;;2.97;;
12290;SDS011;6208;48.956;9.076;2023-06-19T13:23:59;3.65;;;3.45;;
12290;SDS011;6208;48.956;9.076;2023-06-19T13:26:44;3.58;;;3.38;;
12290;SDS011;6208;48.956;9.076;2023-06-19T13:29:28;3.63;;;3.42;;
12290;SDS011;6208;48.956;9.076;2023-06-19T13:32:13;3.83;;;3.63;;
12290;SDS011;6208;48.956;9.076;2023-06-19T13:34:58;3.35;;;3.17;;
12290;SDS011;6208;48.956;9.076;2023-06-19T13:37:42;3.40;;;3.20;;
12290;SDS011;6208;48.956;9.076;2023-06-19T13:40:27;3.60;;;3.40;;
12290;SDS011;6208;48.956;9.076;2023-06-19T13:43:11;4.72;;;4.43;;
12290;SDS011;6208;48.956;9.076;2023-06-19T13:45:56;4.93;;;4.53;;
12290;SDS011;6208;48.956;9.076;2023-06-19T13:48:41;3.67;;;3.47;;
12290;SDS011;6208;48.956;9.076;2023-06-19T13:51:25;3.80;;;3.50;;
12290;SDS011;6208;48.956;9.076;2023-06-19T13:54:10;3.65;;;3.45;;
12290;SDS011;6208;48.956;9.076;2023-06-19T13:56:56;3.60;;;3.40;;
12290;SDS011;6208;48.956;9.076;2023-06-19T13:59:42;3.88;;;3.60;;
12290;SDS011;6208;48.956;9.076;2023-06-19T14:02:26;3.63;;;3.40;;
12290;SDS011;6208;48.956;9.076;2023-06-19T14:05:11;3.85;;;3.40;;
12290;SDS011;6208;48.956;9.076;2023-06-19T14:07:59;3.70;;;3.50;;
12290;SDS011;6208;48.956;9.076;2023-06-19T14:10:44;3.90;;;3.65;;
12290;SDS011;6208;48.956;9.076;2023-06-19T14:13:28;3.40;;;3.15;;
12290;SDS011;6208;48.956;9.076;2023-06-19T14:16:13;3.65;;;3.45;;
12290;SDS011;6208;48.956;9.076;2023-06-19T14:18:57;3.22;;;3.10;;
12290;SDS011;6208;48.956;9.076;2023-06-19T14:21:42;3.80;;;3.60;;
12290;SDS011;6208;48.956;9.076;2023-06-19T14:24:26;4.80;;;4.47;;
12290;SDS011;6208;48.956;9.076;2023-06-19T14:27:11;3.70;;;3.50;;
12290;SDS011;6208;48.956;9.076;2023-06-19T14:29:56;3.70;;;3.50;;
12290;SDS011;6208;48.956;9.076;2023-06-19T14:32:41;4.28;;;4.07;;
12290;SDS011;6208;48.956;9.076;2023-06-19T14:35:25;3.55;;;3.42;;
12290;SDS011;6208;48.956;9.076;2023-06-19T14:38:10;3.53;;;3.33;;
12290;SDS011;6208;48.956;9.076;2023-06-19T14:40:54;4.93;;;4.32;;
12290;SDS011;6208;48.956;9.076;2023-06-19T14:43:40;3.80;;;3.55;;
12290;SDS011;6208;48.956;9.076;2023-06-19T14:46:25;3.90;;;3.70;;
12290;SDS011;6208;48.956;9.076;2023-06-19T14:49:10;3.40;;;3.30;;
12290;SDS011;6208;48.956;9.076;2023-06-19T14:51:58;3.95;;;3.72;;
12290;SDS011;6208;48.956;9.076;2023-06-19T14:54:42;3.75;;;3.45;;
12290;SDS011;6208;48.956;9.076;2023-06-19T14:57:27;3.83;;;3.63;;
12290;SDS011;6208;48.956;9.076;2023-06-19T15:00:11;4.15;;;3.85;;
12290;SDS011;6208;48.956;9.076;2023-06-19T15:02:56;3.88;;;3.67;;
12290;SDS011;6208;48.956;9.076;2023-06-19T15:05:41;4.38;;;4.05;;
12290;SDS011;6208;48.956;9.076;2023-06-19T15:08:25;3.92;;;3.55;;
12290;SDS011;6208;48.956;9.076;2023-06-19T15:11:09;4.20;;;3.80;;
12290;SDS011;6208;48.956;9.076;2023-06-19T15:13:53;4.57;;;3.90;;
12290;SDS011;6208;48.956;9.076;2023-06-19T15:16:38;4.38;;;3.97;;
12290;SDS011;6208;48.956;9.076;2023-06-19T15:19:22;4.13;;;3.83;;
12290;SDS011;6208;48.956;9.076;2023-06-19T15:22:07;4.00;;;3.80;;
12290;SDS011;6208;48.956;9.076;2023-06-19T15:24:51;4.30;;;4.00;;
12290;SDS011;6208;48.956;9.076;2023-06-19T15:27:36;9.15;;;4.57;;
12290;SDS011;6208;48.956;9.076;2023-06-19T15:30:21;8.10;;;5.90;;
12290;SDS011;6208;48.956;9.076;2023-06-19T15:33:05;4.97;;;4.72;;
12290;SDS011;6208;48.956;9.076;2023-06-19T15:35:50;4.50;;;4.20;;
12290;SDS011;6208;48.956;9.076;2023-06-19T15:38:35;4.53;;;4.15;;
12290;SDS011;6208;48.956;9.076;2023-06-19T15:41:19;4.72;;;4.40;;
12290;SDS011;6208;48.956;9.076;2023-06-19T15:44:04;5.53;;;5.18;;
12290;SDS011;6208;48.956;9.076;2023-06-19T15:46:49;4.97;;;4.68;;
12290;SDS011;6208;48.956;9.076;2023-06-19T15:49:33;4.60;;;4.30;;
12290;SDS011;6208;48.956;9.076;2023-06-19T15:52:19;5.38;;;4.75;;
12290;SDS011;6208;48.956;9.076;2023-06-19T15:55:05;4.80;;;4.50;;
12290;SDS011;6208;48.956;9.076;2023-06-19T15:57:49;5.05;;;4.68;;
12290;SDS011;6208;48.956;9.076;2023-06-19T16:00:34;5.88;;;5.03;;
12290;SDS011;6208;48.956;9.076;2023-06-19T16:03:19;5.45;;;5.05;;
12290;SDS011;6208;48.956;9.076;2023-06-19T16:06:04;6.43;;;5.55;;
12290;SDS011;6208;48.956;9.076;2023-06-19T16:08:48;10.88;;;6.88;;
12290;SDS011;6208;48.956;9.076;2023-06-19T16:11:35;14.77;;;7.72;;
12290;SDS011;6208;48.956;9.076;2023-06-19T16:14:20;11.00;;;7.53;;
12290;SDS011;6208;48.956;9.076;2023-06-19T16:17:04;17.17;;;8.65;;
12290;SDS011;6208;48.956;9.076;2023-06-19T16:19:49;7.88;;;7.10;;
12290;SDS011;6208;48.956;9.076;2023-06-19T16:22:33;8.50;;;6.32;;
12290;SDS011;6208;48.956;9.076;2023-06-19T16:25:18;7.75;;;6.85;;
12290;SDS011;6208;48.956;9.076;2023-06-19T16:28:02;11.30;;;7.22;;
12290;SDS011;6208;48.956;9.076;2023-06-19T16:30:47;7.38;;;6.40;;
12290;SDS011;6208;48.956;9.076;2023-06-19T16:33:32;6.75;;;6.18;;
12290;SDS011;6208;48.956;9.076;2023-06-19T16:36:16;5.82;;;5.40;;
12290;SDS011;6208;48.956;9.076;2023-06-19T16:39:02;6.40;;;5.40;;
12290;SDS011;6208;48.956;9.076;2023-06-19T16:41:46;5.53;;;5.03;;
12290;SDS011;6208;48.956;9.076;2023-06-19T16:44:31;6.22;;;5.70;;
12290;SDS011;6208;48.956;9.076;2023-06-19T16:47:15;6.53;;;5.93;;
12290;SDS011;6208;48.956;9.076;2023-06-19T16:50:01;6.75;;;6.15;;
12290;SDS011;6208;48.956;9.076;2023-06-19T16:52:45;6.35;;;5.75;;
12290;SDS011;6208;48.956;9.076;2023-06-19T16:55:32;6.38;;;5.88;;